Time;durP1;ratioP1;P1;durP2;ratioP2;P2;SDS_P1;SDS_P2;PMS_P1;PMS_P2;Temp;Humidity;BMP_temperature;BMP_pressure;BME280_temperature;BME280_humidity;BME280_pressure;Samples;Min_cycle;Max_cycle;Signal;HPM_P1;HPM_P2
2023/12/22 00:03:00;;;;;;;19.02;1.45;;;;;;;5.07;100.00;99021.59;6288933;28;20554;-74
2023/12/22 00:06:01;;;;;;;7.18;1.02;;;;;;;5.22;100.00;99026.81;6284861;28;20055;-74
2023/12/22 00:09:04;;;;;;;8.30;1.73;;;;;;;5.14;100.00;99042.06;6287659;28;20059;-73
2023/12/22 00:12:06;;;;;;;18.40;1.88;;;;;;;5.06;100.00;99053.75;6303889;28;20063;-74
2023/12/22 00:15:07;;;;;;;6.63;1.30;;;;;;;4.94;100.00;99041.44;6303323;28;20056;-73
2023/12/22 00:18:09;;;;;;;10.63;1.40;;;;;;;4.70;100.00;99048.06;6289068;28;20041;-73
2023/12/22 00:21:10;;;;;;;5.47;1.33;;;;;;;4.62;100.00;99037.25;6303809;28;20044;-74
2023/12/22 00:24:13;;;;;;;6.25;1.70;;;;;;;4.66;100.00;99054.34;6302678;28;20044;-74
2023/12/22 00:27:14;;;;;;;12.23;1.48;;;;;;;4.59;100.00;99030.47;6303038;28;20052;-73
2023/12/22 00:30:15;;;;;;;8.63;1.45;;;;;;;4.60;100.00;99050.34;6288701;28;20441;-74
2023/12/22 00:33:17;;;;;;;10.07;1.40;;;;;;;4.70;100.00;99061.91;6293716;28;20045;-74
2023/12/22 00:36:22;;;;;;;17.98;2.53;;;;;;;4.65;100.00;99069.13;6302471;28;20585;-73
2023/12/22 00:39:25;;;;;;;10.07;1.40;;;;;;;4.54;100.00;99042.84;6303585;28;20061;-73
2023/12/22 00:42:27;;;;;;;14.88;1.67;;;;;;;4.35;100.00;99076.03;6303113;28;20045;-73
2023/12/22 00:45:28;;;;;;;17.02;1.73;;;;;;;4.40;100.00;99071.41;6302890;28;20045;-73
2023/12/22 00:48:29;;;;;;;16.67;1.65;;;;;;;4.37;100.00;99072.44;6299566;28;20330;-73
2023/12/22 00:51:31;;;;;;;17.52;2.03;;;;;;;4.37;100.00;99074.19;6290303;28;20048;-73
2023/12/22 00:54:33;;;;;;;7.70;1.92;;;;;;;4.28;100.00;99083.31;6302262;28;20045;-74
2023/12/22 00:57:34;;;;;;;10.20;1.70;;;;;;;4.15;100.00;99061.50;6302927;28;20075;-74
2023/12/22 01:00:36;;;;;;;9.48;1.60;;;;;;;4.14;100.00;99104.88;6302950;28;20053;-73
2023/12/22 01:03:37;;;;;;;5.57;0.95;;;;;;;3.87;100.00;99120.16;6302275;28;20049;-74
2023/12/22 01:06:39;;;;;;;7.30;1.52;;;;;;;3.84;100.00;99111.69;6302215;28;20459;-72
2023/12/22 01:09:43;;;;;;;11.85;1.98;;;;;;;3.58;100.00;99098.25;6302625;28;20178;-73
2023/12/22 01:12:44;;;;;;;10.70;1.38;;;;;;;3.55;100.00;99104.47;6302459;28;20044;-74
2023/12/22 01:15:46;;;;;;;7.53;0.93;;;;;;;3.58;100.00;99113.84;6301890;28;20060;-74
2023/12/22 01:18:47;;;;;;;6.20;1.02;;;;;;;3.54;100.00;99118.38;6302608;28;20075;-74
2023/12/22 01:21:49;;;;;;;7.07;1.35;;;;;;;3.46;100.00;99107.53;6302069;28;20044;-74
2023/12/22 01:24:52;;;;;;;12.35;1.15;;;;;;;3.53;100.00;99093.31;6301877;28;20426;-73
2023/12/22 01:27:53;;;;;;;9.30;1.85;;;;;;;3.61;100.00;99099.88;6302207;28;20345;-72
2023/12/22 01:30:54;;;;;;;6.55;1.58;;;;;;;3.68;100.00;99109.88;6302413;28;20052;-72
2023/12/22 01:33:56;;;;;;;8.27;1.42;;;;;;;3.59;100.00;99093.91;6301386;28;20048;-75
2023/12/22 01:36:57;;;;;;;8.27;1.35;;;;;;;3.64;100.00;99095.38;6301705;28;20372;-72
2023/12/22 01:40:00;;;;;;;2.78;0.98;;;;;;;3.54;100.00;99125.31;6302126;28;20048;-73
2023/12/22 01:43:02;;;;;;;11.93;1.13;;;;;;;3.67;100.00;99097.78;6301624;28;20075;-73
2023/12/22 01:46:04;;;;;;;18.13;2.47;;;;;;;3.68;100.00;99109.88;6301362;28;20433;-74
2023/12/22 01:49:08;;;;;;;13.98;1.38;;;;;;;3.67;100.00;99096.94;6301722;28;20052;-74
2023/12/22 01:52:10;;;;;;;5.35;1.52;;;;;;;3.65;100.00;99104.00;6293981;28;20045;-74
2023/12/22 01:55:14;;;;;;;14.90;1.75;;;;;;;3.71;100.00;99121.84;6291456;28;20055;-73
2023/12/22 01:58:15;;;;;;;14.50;1.83;;;;;;;3.70;100.00;99107.19;6286673;28;20045;-74
2023/12/22 02:01:17;;;;;;;20.02;1.63;;;;;;;3.78;100.00;99126.66;6301205;28;20052;-73
2023/12/22 02:04:19;;;;;;;9.15;2.55;;;;;;;3.77;100.00;99135.38;6289808;28;20041;-73
2023/12/22 02:07:20;;;;;;;8.18;1.75;;;;;;;3.88;100.00;99129.63;6301117;28;20052;-73
2023/12/22 02:10:23;;;;;;;4.82;1.13;;;;;;;3.91;100.00;99126.03;6301110;28;20060;-74
2023/12/22 02:13:24;;;;;;;11.02;1.45;;;;;;;3.91;100.00;99142.47;6300901;28;20048;-74
2023/12/22 02:16:33;;;;;;;8.43;0.98;;;;;;;3.94;100.00;99125.88;6299661;28;20048;-73
2023/12/22 02:19:42;;;;;;;6.25;1.02;;;;;;;3.63;100.00;99132.63;6289932;28;20127;-74
2023/12/22 02:22:45;;;;;;;;;;;;;;;3.58;100.00;99159.75;6301022;28;20194;-74
2023/12/22 02:25:46;;;;;;;9.40;0.80;;;;;;;3.48;100.00;99139.44;6300428;28;19931;-74
2023/12/22 02:28:49;;;;;;;1.00;0.77;;;;;;;3.51;100.00;99144.50;6300763;28;20048;-74
2023/12/22 02:31:54;;;;;;;7.68;1.55;;;;;;;3.51;100.00;99141.06;6300647;28;20048;-73
2023/12/22 02:34:57;;;;;;;5.32;1.05;;;;;;;3.52;100.00;99150.53;6300002;28;20460;-74
2023/12/22 02:38:02;;;;;;;9.32;0.50;;;;;;;3.58;100.00;99137.22;6297467;28;20040;-74
2023/12/22 02:41:05;;;;;;;9.35;1.02;;;;;;;3.56;100.00;99131.28;6292221;28;20048;-74
2023/12/22 02:44:07;;;;;;;5.05;0.68;;;;;;;3.52;100.00;99128.00;6299940;28;20059;-74
2023/12/22 02:47:09;;;;;;;7.07;0.70;;;;;;;3.56;100.00;99131.28;6300323;28;20356;-74
2023/12/22 02:50:10;;;;;;;13.00;1.55;;;;;;;3.61;100.00;99129.28;6300525;28;20048;-74
2023/12/22 02:53:13;;;;;;;4.03;1.52;;;;;;;3.53;100.00;99124.47;6300154;28;20040;-74
2023/12/22 02:56:14;;;;;;;7.60;1.30;;;;;;;3.62;100.00;99127.53;6299667;28;20056;-74
2023/12/22 02:59:16;;;;;;;10.70;1.20;;;;;;;3.60;100.00;99130.22;6300257;28;20334;-73
2023/12/22 03:02:17;;;;;;;6.13;1.77;;;;;;;3.59;100.00;99125.06;6299924;28;20051;-72
2023/12/22 03:05:18;;;;;;;4.75;0.90;;;;;;;3.62;100.00;99122.31;6299803;28;20048;-74
2023/12/22 03:08:21;;;;;;;10.43;1.20;;;;;;;3.51;100.00;99113.34;6299892;28;20052;-74
2023/12/22 03:11:22;;;;;;;14.77;1.95;;;;;;;3.53;100.00;99129.66;6300035;28;20457;-75
2023/12/22 03:14:24;;;;;;;8.70;1.20;;;;;;;3.54;100.00;99122.72;6299135;28;20044;-73
2023/12/22 03:17:25;;;;;;;14.10;1.45;;;;;;;3.58;100.00;99145.00;6300236;28;20052;-73
2023/12/22 03:20:26;;;;;;;18.60;1.45;;;;;;;3.59;100.00;99143.25;6299978;28;20059;-74
2023/12/22 03:23:29;;;;;;;10.50;2.70;;;;;;;3.68;100.00;99138.47;6299612;28;20357;-75
2023/12/22 03:26:30;;;;;;;15.95;1.20;;;;;;;3.70;100.00;99118.44;6299698;28;20044;-74
2023/12/22 03:29:32;;;;;;;11.15;1.30;;;;;;;3.63;100.00;99119.63;6304163;28;20447;-73
2023/12/22 03:32:33;;;;;;;9.68;1.38;;;;;;;3.67;100.00;99133.31;6304914;28;20056;-73
2023/12/22 03:35:34;;;;;;;19.90;1.95;;;;;;;3.69;100.00;99111.56;6304319;28;20049;-73
2023/12/22 03:38:37;;;;;;;11.18;1.55;;;;;;;3.73;100.00;99097.50;6304817;28;20052;-74
2023/12/22 03:41:38;;;;;;;10.00;1.50;;;;;;;3.75;100.00;99100.00;6304228;28;20068;-72
2023/12/22 03:44:39;;;;;;;13.85;1.75;;;;;;;3.71;100.00;99114.91;6304282;28;20047;-72
2023/12/22 03:47:41;;;;;;;4.85;1.15;;;;;;;3.68;100.00;99130.66;6304567;28;20063;-73
2023/12/22 03:50:42;;;;;;;4.88;1.13;;;;;;;3.63;100.00;99106.66;6285717;28;20064;-73
2023/12/22 03:53:45;;;;;;;2.97;0.77;;;;;;;3.52;100.00;99111.56;6290405;28;21416;-73
2023/12/22 03:56:46;;;;;;;2.08;0.45;;;;;;;3.58;100.00;99106.06;6301421;28;20059;-73
2023/12/22 03:59:47;;;;;;;16.75;2.47;;;;;;;3.62;100.00;99109.34;6293547;28;20048;-73
2023/12/22 04:02:49;;;;;;;8.43;2.63;;;;;;;3.63;100.00;99114.44;6292203;28;20326;-73
2023/12/22 04:05:50;;;;;;;10.55;1.30;;;;;;;3.59;100.00;99114.69;6292017;28;20052;-73
2023/12/22 04:08:53;;;;;;;8.20;1.40;;;;;;;3.50;100.00;99113.41;6279347;28;20426;-73
2023/12/22 04:11:54;;;;;;;8.43;2.22;;;;;;;3.42;100.00;99134.56;6278981;28;20049;-72
2023/12/22 04:14:55;;;;;;;11.52;1.00;;;;;;;3.44;100.00;99131.88;6278722;28;20048;-73
2023/12/22 04:17:57;;;;;;;8.30;1.15;;;;;;;3.17;100.00;99137.53;6278121;28;20084;-73
2023/12/22 04:20:58;;;;;;;9.68;1.00;;;;;;;3.26;100.00;99142.25;6278297;28;20049;-74
2023/12/22 04:24:01;;;;;;;1.98;0.85;;;;;;;3.17;100.00;99157.44;6278049;28;20106;-73
2023/12/22 04:27:02;;;;;;;18.80;1.88;;;;;;;3.26;100.00;99147.47;6278725;28;20140;-74
2023/12/22 04:30:04;;;;;;;7.00;1.17;;;;;;;3.29;100.00;99141.28;6278176;28;20052;-73
2023/12/22 04:33:05;;;;;;;5.72;1.27;;;;;;;3.37;100.00;99123.56;6277387;28;20044;-74
2023/12/22 04:36:07;;;;;;;14.75;1.40;;;;;;;3.37;100.00;99108.00;6276418;28;20064;-73
2023/12/22 04:39:10;;;;;;;6.88;1.02;;;;;;;3.33;100.00;99114.25;6279188;28;20045;-74
2023/12/22 04:42:11;;;;;;;5.63;1.10;;;;;;;3.31;100.00;99103.94;6277470;28;20048;-73
2023/12/22 04:45:13;;;;;;;6.63;1.17;;;;;;;3.27;100.00;99105.03;6275555;28;20045;-74
2023/12/22 04:48:14;;;;;;;12.77;1.63;;;;;;;3.36;100.00;99110.66;6276958;28;20127;-74
2023/12/22 04:51:15;;;;;;;10.13;1.40;;;;;;;3.43;100.00;99128.44;6276514;28;20056;-74
2023/12/22 04:54:18;;;;;;;13.52;1.60;;;;;;;3.44;100.00;99131.88;6272900;28;20044;-74
2023/12/22 04:57:19;;;;;;;11.15;1.95;;;;;;;3.40;100.00;99127.75;6276795;28;20053;-74
2023/12/22 05:00:21;;;;;;;17.75;1.65;;;;;;;3.41;100.00;99121.69;6276031;28;20051;-73
2023/12/22 05:03:22;;;;;;;9.73;1.73;;;;;;;3.48;100.00;99112.63;6276235;28;20049;-74
2023/12/22 05:06:23;;;;;;;7.18;1.65;;;;;;;3.62;100.00;99117.97;6275455;28;20053;-74
2023/12/22 05:09:27;;;;;;;11.30;1.17;;;;;;;3.75;100.00;99126.81;6276396;28;20052;-73
2023/12/22 05:12:28;;;;;;;9.73;1.08;;;;;;;3.78;100.00;99110.25;6275894;28;20060;-73
2023/12/22 05:15:29;;;;;;;9.10;2.03;;;;;;;3.85;100.00;99147.97;6275424;28;20041;-72
2023/12/22 05:18:31;;;;;;;10.88;1.48;;;;;;;3.91;100.00;99110.44;6275627;28;20049;-72
2023/12/22 05:21:32;;;;;;;9.32;1.02;;;;;;;3.83;100.00;99117.81;6275555;28;20060;-72
2023/12/22 05:24:35;;;;;;;11.73;1.42;;;;;;;3.77;100.00;99124.13;6275621;28;20056;-72
2023/12/22 05:27:36;;;;;;;10.43;2.28;;;;;;;3.91;100.00;99113.06;6275725;28;20068;-72
2023/12/22 05:30:38;;;;;;;12.23;1.17;;;;;;;3.89;100.00;99120.91;6273213;28;20049;-71
2023/12/22 05:33:39;;;;;;;10.63;1.85;;;;;;;4.03;100.00;99135.78;6275367;28;20430;-73
2023/12/22 05:36:40;;;;;;;7.57;1.33;;;;;;;4.13;100.00;99136.97;6275076;28;20430;-73
2023/12/22 05:39:45;;;;;;;17.20;1.80;;;;;;;4.10;100.00;99139.75;6276115;28;20049;-72
2023/12/22 05:42:46;;;;;;;14.23;1.50;;;;;;;4.07;100.00;99134.69;6276025;28;20075;-71
2023/12/22 05:45:47;;;;;;;15.32;1.50;;;;;;;4.00;100.00;99147.19;6275046;28;20084;-72
2023/12/22 05:48:49;;;;;;;11.18;1.10;;;;;;;3.66;100.00;99155.03;6275960;28;20061;-73
2023/12/22 05:51:50;;;;;;;10.45;1.17;;;;;;;3.53;100.00;99134.84;6274046;28;20444;-73
2023/12/22 05:54:54;;;;;;;8.75;1.25;;;;;;;3.48;100.00;99229.50;6290052;22;20042;-77
2023/12/22 05:57:55;;;;;;;12.52;0.93;;;;;;;3.25;100.00;99178.69;6242836;28;20049;-72
2023/12/22 06:00:56;;;;;;;8.20;1.05;;;;;;;3.16;100.00;99195.53;6266004;28;20056;-74
2023/12/22 06:03:58;;;;;;;9.68;1.50;;;;;;;3.17;100.00;99240.50;6268453;28;20433;-75
2023/12/22 06:07:00;;;;;;;5.80;0.80;;;;;;;3.11;100.00;99160.34;6265812;28;20365;-76
2023/12/22 06:10:02;;;;;;;6.63;2.47;;;;;;;2.90;100.00;99183.81;6275375;28;20048;-74
2023/12/22 06:13:05;;;;;;;1.27;0.35;;;;;;;2.90;100.00;99173.41;6275155;28;20057;-71
2023/12/22 06:16:06;;;;;;;1.33;0.52;;;;;;;2.84;100.00;99191.88;6274542;28;20049;-74
2023/12/22 06:19:09;;;;;;;1.27;0.47;;;;;;;2.72;100.00;99189.84;6275085;28;20460;-72
2023/12/22 06:22:11;;;;;;;1.27;0.40;;;;;;;2.69;100.00;99193.44;6266336;28;20400;-74
2023/12/22 06:25:13;;;;;;;4.28;0.40;;;;;;;2.64;100.00;99205.78;6274645;28;20048;-74
2023/12/22 06:28:16;;;;;;;4.20;0.47;;;;;;;2.82;100.00;99206.69;6274948;28;20063;-73
2023/12/22 06:31:20;;;;;;;2.70;0.65;;;;;;;2.86;100.00;99208.22;6274726;28;20044;-74
2023/12/22 06:34:21;;;;;;;1.63;0.43;;;;;;;2.96;100.00;99212.06;6273969;28;20154;-72
2023/12/22 06:37:22;;;;;;;4.57;0.70;;;;;;;3.05;100.00;99201.25;6274668;28;20429;-73
2023/12/22 06:40:25;;;;;;;1.13;0.35;;;;;;;3.11;100.00;99204.47;6274721;28;20081;-72
2023/12/22 06:43:26;;;;;;;5.85;0.95;;;;;;;3.10;100.00;99213.19;6274487;28;20357;-74
2023/12/22 06:46:28;;;;;;;9.32;0.70;;;;;;;3.14;100.00;99206.94;6274085;28;20056;-73
2023/12/22 06:49:30;;;;;;;4.47;0.95;;;;;;;3.15;100.00;99198.22;6274341;28;20420;-74
2023/12/22 06:52:31;;;;;;;15.60;1.50;;;;;;;3.03;100.00;99202.22;6274362;28;20060;-72
2023/12/22 06:55:34;;;;;;;6.35;0.98;;;;;;;2.99;100.00;99217.09;6273656;28;20563;-72
2023/12/22 06:58:35;;;;;;;14.07;1.15;;;;;;;3.08;100.00;99259.09;6274469;28;20064;-72
2023/12/22 07:01:36;;;;;;;15.20;1.08;;;;;;;2.95;100.00;99264.88;6273776;28;20048;-72
2023/12/22 07:04:38;;;;;;;10.07;1.05;;;;;;;2.80;100.00;99243.06;6273681;28;20103;-73
2023/12/22 07:07:39;;;;;;;7.03;1.00;;;;;;;2.79;100.00;99248.31;6273992;28;20057;-72
2023/12/22 07:10:42;;;;;;;11.55;1.30;;;;;;;2.92;100.00;99248.63;6274514;28;20464;-72
2023/12/22 07:13:43;;;;;;;11.88;1.60;;;;;;;3.08;100.00;99243.53;6274145;28;20056;-72
2023/12/22 07:16:45;;;;;;;7.00;1.35;;;;;;;3.13;100.00;99233.78;6273532;28;20046;-72
2023/12/22 07:19:46;;;;;;;11.55;1.90;;;;;;;3.41;100.00;99248.91;6274184;28;20049;-72
2023/12/22 07:22:47;;;;;;;15.98;1.52;;;;;;;3.55;100.00;99257.69;6273758;28;20057;-72
2023/12/22 07:25:50;;;;;;;9.93;1.92;;;;;;;3.66;100.00;99257.16;6246395;28;20442;-72
2023/12/22 07:28:51;;;;;;;8.13;1.77;;;;;;;3.74;100.00;99257.63;6247103;28;20052;-72
2023/12/22 07:31:53;;;;;;;10.23;1.90;;;;;;;3.90;100.00;99262.06;6250248;28;20462;-72
2023/12/22 07:34:54;;;;;;;27.98;2.15;;;;;;;4.00;100.00;99264.16;6249656;28;20049;-72
2023/12/22 07:37:56;;;;;;;8.95;1.58;;;;;;;3.99;100.00;99279.78;6250175;28;20060;-73
2023/12/22 07:40:59;;;;;;;8.20;1.92;;;;;;;4.02;100.00;99277.91;6250194;28;20052;-73
2023/12/22 07:44:01;;;;;;;19.13;2.20;;;;;;;4.05;100.00;99306.34;6249618;28;20049;-73
2023/12/22 07:47:02;;;;;;;15.45;1.95;;;;;;;4.11;100.00;99312.16;6250260;28;20537;-71
2023/12/22 07:50:08;;;;;;;18.17;2.33;;;;;;;4.07;100.00;99316.66;6250329;28;20318;-73
2023/12/22 07:53:09;;;;;;;17.50;1.77;;;;;;;4.12;100.00;99334.63;6257572;28;20056;-73
2023/12/22 07:56:12;;;;;;;8.82;1.45;;;;;;;4.28;100.00;99322.56;6259708;28;20045;-73
2023/12/22 07:59:14;;;;;;;9.55;2.22;;;;;;;4.27;100.00;99320.84;6269294;28;20045;-75
2023/12/22 08:02:15;;;;;;;19.50;2.33;;;;;;;4.33;100.00;99310.16;6274245;28;20049;-74
2023/12/22 08:05:16;;;;;;;12.05;2.75;;;;;;;4.45;100.00;99319.06;6274134;28;20052;-74
2023/12/22 08:08:18;;;;;;;17.80;1.88;;;;;;;4.44;100.00;99310.44;6262907;28;20103;-73
2023/12/22 08:11:20;;;;;;;9.65;2.45;;;;;;;4.47;100.00;99312.88;6269174;28;20452;-74
2023/12/22 08:14:22;;;;;;;22.73;2.05;;;;;;;4.58;100.00;99320.13;6272704;28;20056;-74
2023/12/22 08:17:24;;;;;;;8.82;1.73;;;;;;;4.65;100.00;99318.06;6279177;28;20447;-74
2023/12/22 08:20:25;;;;;;;9.00;1.60;;;;;;;4.66;100.00;99327.53;6261075;28;20041;-71
2023/12/22 08:23:26;;;;;;;15.13;2.03;;;;;;;4.72;100.00;99332.41;6244617;28;20446;-71
2023/12/22 08:26:29;;;;;;;25.35;2.78;;;;;;;4.97;100.00;99332.81;6240462;28;20045;-74
2023/12/22 08:29:30;;;;;;;11.75;2.08;;;;;;;4.98;100.00;99388.34;6245861;28;20453;-76
2023/12/22 08:32:32;;;;;;;26.73;2.90;;;;;;;4.86;100.00;99340.38;6252305;28;20045;-74
2023/12/22 08:35:33;;;;;;;15.10;2.13;;;;;;;4.87;100.00;99369.84;6253344;28;20048;-73
2023/12/22 08:38:34;;;;;;;15.40;1.35;;;;;;;4.91;100.00;99358.34;6253666;28;20045;-74
2023/12/22 08:41:37;;;;;;;26.10;1.83;;;;;;;4.97;100.00;99361.47;6253277;28;20050;-74
2023/12/22 08:44:38;;;;;;;14.27;1.95;;;;;;;5.04;100.00;99365.44;6253106;28;20430;-74
2023/12/22 08:47:40;;;;;;;8.68;1.98;;;;;;;5.15;100.00;99362.25;6253478;28;20053;-74
2023/12/22 08:50:41;;;;;;;18.52;2.45;;;;;;;5.28;100.00;99359.84;6253689;28;20053;-75
2023/12/22 08:53:42;;;;;;;17.77;2.20;;;;;;;5.32;100.00;99375.22;6253294;28;20056;-73
2023/12/22 08:56:45;;;;;;;7.55;1.52;;;;;;;5.34;100.00;99377.72;6252706;28;20055;-73
2023/12/22 08:59:46;;;;;;;15.48;1.85;;;;;;;5.33;100.00;99387.31;6252741;28;20134;-74
2023/12/22 09:02:48;;;;;;;9.88;1.48;;;;;;;5.39;100.00;99372.28;6252878;28;20053;-73
2023/12/22 09:05:49;;;;;;;13.40;1.63;;;;;;;5.43;100.00;99386.81;6228035;28;20052;-73
2023/12/22 09:08:50;;;;;;;16.77;3.33;;;;;;;5.38;100.00;99381.84;6228546;28;20049;-74
2023/12/22 09:11:53;;;;;;;4.43;1.58;;;;;;;5.35;100.00;99385.44;6264068;28;20048;-74
2023/12/22 09:14:54;;;;;;;9.88;1.63;;;;;;;5.37;100.00;99380.19;6277080;28;20049;-74
2023/12/22 09:17:56;;;;;;;13.02;1.77;;;;;;;5.38;100.00;99381.00;6277907;28;20053;-74
2023/12/22 09:20:57;;;;;;;12.38;1.75;;;;;;;5.47;100.00;99375.31;6277612;28;20547;-76
2023/12/22 09:23:58;;;;;;;5.10;1.10;;;;;;;5.48;100.00;99361.34;6276972;28;20049;-75
2023/12/22 09:27:02;;;;;;;17.42;1.70;;;;;;;5.49;100.00;99360.41;6277644;28;20076;-75
2023/12/22 09:30:06;;;;;;;13.10;1.17;;;;;;;5.48;100.00;99369.16;6277527;28;20049;-74
2023/12/22 09:33:09;;;;;;;6.75;1.60;;;;;;;5.40;100.00;99376.56;6277176;28;20135;-72
2023/12/22 09:36:11;;;;;;;6.80;1.23;;;;;;;5.48;100.00;99349.16;6276178;28;20041;-75
2023/12/22 09:39:16;;;;;;;5.80;1.08;;;;;;;5.48;100.00;99377.81;6277413;28;20048;-75
2023/12/22 09:42:20;;;;;;;7.20;1.13;;;;;;;5.44;100.00;99391.94;6276848;28;20099;-74
2023/12/22 09:45:22;;;;;;;5.47;1.65;;;;;;;5.44;100.00;99381.50;6276203;28;20386;-73
2023/12/22 09:48:27;;;;;;;11.30;1.13;;;;;;;5.34;100.00;99391.59;6276868;28;20437;-74
2023/12/22 09:51:31;;;;;;;8.07;1.67;;;;;;;5.24;100.00;99395.63;6276025;28;20198;-72
2023/12/22 09:54:33;;;;;;;10.82;1.17;;;;;;;5.24;100.00;99386.97;6266352;28;20049;-74
2023/12/22 09:57:38;;;;;;;18.35;2.13;;;;;;;5.19;100.00;99387.22;6272435;28;20575;-73
2023/12/22 10:00:40;;;;;;;12.13;1.17;;;;;;;5.34;100.00;99382.94;6276553;28;20049;-73
2023/12/22 10:03:42;;;;;;;12.65;1.58;;;;;;;5.17;100.00;99399.44;6271517;28;20045;-73
2023/12/22 10:06:45;;;;;;;7.88;1.10;;;;;;;5.22;100.00;99375.78;6251408;28;20041;-80
2023/12/22 10:09:48;;;;;;;3.95;0.70;;;;;;;5.15;100.00;99382.25;6262279;28;20071;-74
2023/12/22 10:12:54;;;;;;;10.15;1.00;;;;;;;5.23;100.00;99382.69;6269378;28;20041;-74
2023/12/22 10:15:56;;;;;;;10.30;1.08;;;;;;;5.18;100.00;99402.91;6275993;28;20045;-74
2023/12/22 10:18:57;;;;;;;7.20;0.82;;;;;;;4.91;100.00;99416.47;6272660;28;20127;-74
2023/12/22 10:21:59;;;;;;;8.95;1.33;;;;;;;4.59;100.00;99407.69;6275717;28;20060;-76
2023/12/22 10:25:00;;;;;;;5.57;0.85;;;;;;;4.33;100.00;99403.78;6275915;28;20426;-75
2023/12/22 10:28:04;;;;;;;5.18;0.70;;;;;;;4.28;100.00;99391.00;6271651;28;20045;-74
2023/12/22 10:31:07;;;;;;;3.25;1.05;;;;;;;4.28;100.00;99361.56;6276136;28;20056;-74
2023/12/22 10:34:08;;;;;;;7.78;1.30;;;;;;;4.29;100.00;99356.28;6274999;28;20075;-75
2023/12/22 10:37:10;;;;;;;15.68;1.42;;;;;;;4.29;100.00;99350.22;6266879;28;20125;-75
2023/12/22 10:40:13;;;;;;;4.18;1.08;;;;;;;4.29;100.00;99371.88;6275373;28;20041;-75
2023/12/22 10:43:16;;;;;;;16.88;1.52;;;;;;;4.32;100.00;99376.09;6271533;28;20470;-75
2023/12/22 10:46:18;;;;;;;5.57;1.33;;;;;;;4.41;100.00;99369.59;6274313;28;20060;-72
2023/12/22 10:49:20;;;;;;;12.65;1.40;;;;;;;4.45;100.00;99384.97;6242630;28;20045;-73
2023/12/22 10:52:21;;;;;;;12.10;1.63;;;;;;;4.48;100.00;99360.53;6250736;28;20057;-73
2023/12/22 10:55:22;;;;;;;12.48;1.55;;;;;;;4.64;100.00;99355.41;6250161;28;20358;-73
2023/12/22 10:58:26;;;;;;;7.22;1.50;;;;;;;4.71;100.00;99348.97;6268700;28;20053;-73
2023/12/22 11:01:30;;;;;;;22.65;3.10;;;;;;;4.77;100.00;99353.88;6275365;28;20083;-72
2023/12/22 11:04:36;;;;;;;8.05;1.20;;;;;;;4.82;100.00;99363.09;6274993;28;20148;-74
2023/12/22 11:07:38;;;;;;;9.73;2.58;;;;;;;4.82;100.00;99364.88;6275134;28;20048;-73
2023/12/22 11:10:42;;;;;;;16.50;1.38;;;;;;;4.82;100.00;99359.66;6275540;28;20045;-73
2023/12/22 11:13:46;;;;;;;10.10;1.10;;;;;;;4.90;100.00;99367.91;6275089;28;20142;-73
2023/12/22 11:16:48;;;;;;;19.55;1.85;;;;;;;5.01;100.00;99356.94;6274812;28;20045;-73
2023/12/22 11:19:50;;;;;;;8.02;1.13;;;;;;;5.02;100.00;99354.25;6269639;28;20506;-72
2023/12/22 11:22:53;;;;;;;11.43;1.48;;;;;;;5.09;100.00;99359.97;6275020;28;20049;-76
2023/12/22 11:25:54;;;;;;;5.78;1.35;;;;;;;5.19;100.00;99368.16;6274630;28;20087;-75
2023/12/22 11:28:58;;;;;;;5.15;1.10;;;;;;;5.31;100.00;99363.13;6275308;28;20049;-74
2023/12/22 11:32:03;;;;;;;17.45;3.25;;;;;;;5.35;100.00;99353.34;6274947;28;20053;-72
2023/12/22 11:35:07;;;;;;;11.93;1.80;;;;;;;5.35;100.00;99332.53;6275099;28;20049;-72
2023/12/22 11:38:12;;;;;;;8.18;1.38;;;;;;;5.44;100.00;99332.00;6274768;28;20056;-73
2023/12/22 11:41:19;;;;;;;9.95;1.77;;;;;;;5.54;100.00;99335.81;6274903;28;20057;-72
2023/12/22 11:44:22;;;;;;;13.90;1.75;;;;;;;5.53;100.00;99341.94;6274460;28;20057;-72
2023/12/22 11:47:24;;;;;;;7.03;1.20;;;;;;;5.56;100.00;99339.16;6265430;28;20049;-72
2023/12/22 11:50:30;;;;;;;10.43;1.52;;;;;;;5.58;100.00;99334.69;6274860;28;20345;-73
2023/12/22 11:53:33;;;;;;;13.57;1.63;;;;;;;5.63;100.00;99334.44;6260724;28;20430;-76
2023/12/22 11:56:36;;;;;;;7.90;0.90;;;;;;;5.77;100.00;99320.66;6297791;22;20246;-76
2023/12/22 11:59:39;;;;;;;11.30;2.22;;;;;;;5.75;100.00;99332.91;6275515;28;20135;-76
2023/12/22 12:02:41;;;;;;;10.35;1.40;;;;;;;5.79;100.00;99334.44;6258318;28;20049;-76
2023/12/22 12:05:43;;;;;;;8.02;1.55;;;;;;;5.81;100.00;99333.44;6269340;28;20041;-76
2023/12/22 12:08:44;;;;;;;11.25;1.10;;;;;;;5.80;100.00;99312.66;6254254;28;20071;-75
2023/12/22 12:12:11;;;;;;;8.82;1.42;;;;;;;5.84;100.00;99311.56;6262529;28;20049;-75
2023/12/22 12:15:18;;;;;;;9.82;1.35;;;;;;;5.88;100.00;99310.44;6277926;28;20053;-74
2023/12/22 12:18:23;;;;;;;12.00;1.58;;;;;;;5.98;100.00;99311.63;6278972;28;20064;-75
2023/12/22 12:21:24;;;;;;;6.47;1.27;;;;;;;6.00;100.00;99315.00;6252478;28;20116;-73
2023/12/22 12:24:26;;;;;;;22.52;2.10;;;;;;;6.12;100.00;99326.47;6252233;28;20081;-74
2023/12/22 12:27:27;;;;;;;15.07;1.55;;;;;;;6.07;100.00;99331.97;6250101;28;20346;-75
2023/12/22 12:30:31;;;;;;;19.23;1.98;;;;;;;6.10;100.00;99334.41;6253549;28;20060;-75
2023/12/22 12:33:33;;;;;;;7.63;1.08;;;;;;;6.16;100.00;99327.97;6256842;28;20127;-74
2023/12/22 12:36:35;;;;;;;4.00;1.23;;;;;;;6.12;100.00;99333.47;6251473;28;20163;-77
2023/12/22 12:39:40;;;;;;;10.57;1.25;;;;;;;6.16;100.00;99316.72;6256872;28;20052;-76
2023/12/22 12:42:41;;;;;;;9.60;1.33;;;;;;;6.18;100.00;99322.69;6252801;28;20053;-79
2023/12/22 12:45:44;;;;;;;3.65;0.93;;;;;;;6.15;100.00;99312.44;6251442;28;20045;-76
2023/12/22 12:48:45;;;;;;;5.38;0.95;;;;;;;6.18;100.00;99322.69;6252476;28;20065;-78
2023/12/22 12:51:48;;;;;;;12.35;1.35;;;;;;;6.25;100.00;99313.56;6252006;28;20461;-76
2023/12/22 12:54:50;;;;;;;11.23;1.10;;;;;;;6.15;100.00;99323.69;6252060;28;20060;-76
2023/12/22 12:57:52;;;;;;;5.00;1.20;;;;;;;6.18;100.00;99299.22;6251785;28;20061;-76
2023/12/22 13:01:04;;;;;;;7.63;0.85;;;;;;;6.19;100.00;99313.94;6251590;28;20049;-78
2023/12/22 13:04:05;;;;;;;12.68;1.33;;;;;;;6.21;100.00;99309.47;6249243;28;20343;-77
2023/12/22 13:07:06;;;;;;;5.95;1.02;;;;;;;6.27;100.00;99312.56;6251458;28;20354;-75
2023/12/22 13:10:20;;;;;;;6.40;1.30;;;;;;;6.23;100.00;99321.50;6251622;28;20236;-75
2023/12/22 13:13:22;;;;;;;6.07;1.27;;;;;;;6.22;100.00;99318.94;6258633;28;20048;-76
2023/12/22 13:16:27;;;;;;;11.65;1.30;;;;;;;6.29;100.00;99307.25;6252276;28;20064;-76
2023/12/22 13:19:29;;;;;;;1.88;0.68;;;;;;;6.24;100.00;99323.16;6253139;28;20131;-75
2023/12/22 13:22:30;;;;;;;11.63;1.20;;;;;;;6.20;100.00;99316.44;6252715;28;20207;-76
2023/12/22 13:25:39;;;;;;;16.70;2.28;;;;;;;6.37;100.00;99296.38;6254285;28;20107;-76
2023/12/22 13:28:40;;;;;;;8.50;1.97;;;;;;;6.30;100.00;99291.50;6269056;28;20178;-77
2023/12/22 13:31:45;;;;;;;6.72;1.10;;;;;;;6.35;100.00;99297.28;6277100;28;20045;-76
2023/12/22 13:34:51;;;;;;;4.88;1.02;;;;;;;6.28;100.00;99306.41;6276899;28;20128;-76
2023/12/22 13:37:52;;;;;;;7.82;0.85;;;;;;;6.26;100.00;99296.97;6277186;28;20147;-76
2023/12/22 13:40:54;;;;;;;6.03;1.73;;;;;;;6.24;100.00;99302.28;6277062;28;20056;-76
2023/12/22 13:43:57;;;;;;;6.15;0.90;;;;;;;6.25;100.00;99282.25;6276743;28;20064;-76
2023/12/22 13:47:04;;;;;;;8.02;1.23;;;;;;;6.24;100.00;99270.16;6277188;28;20048;-75
2023/12/22 13:50:14;;;;;;;4.35;0.98;;;;;;;6.31;100.00;99266.25;6276931;28;20341;-74
2023/12/22 13:53:15;;;;;;;7.68;1.90;;;;;;;6.31;100.00;99280.16;6276847;28;20105;-75
2023/12/22 13:56:17;;;;;;;9.73;1.55;;;;;;;6.24;100.00;99267.56;6267171;28;20049;-74
2023/12/22 13:59:31;;;;;;;9.55;1.25;;;;;;;6.18;100.00;99268.75;6268667;28;20049;-76
2023/12/22 14:02:34;;;;;;;11.82;1.63;;;;;;;6.23;100.00;99248.47;6275067;28;20362;-77
2023/12/22 14:05:35;;;;;;;4.32;0.90;;;;;;;6.29;100.00;99265.50;6267749;28;20045;-75
2023/12/22 14:08:37;;;;;;;6.50;1.15;;;;;;;6.25;100.00;99262.22;6276155;28;20575;-75
2023/12/22 14:11:38;;;;;;;6.22;1.23;;;;;;;6.21;100.00;99254.69;6275698;28;20464;-73
2023/12/22 14:14:39;;;;;;;11.57;1.00;;;;;;;6.17;100.00;99247.97;6275620;28;20045;-74